Aeroporto :
LOGIN :

Iscrizione | Disclaimer

   EN    FR    IT 

 










Sommario :    VFR   VFR Marginale   IFR   IFR Intensivo   IFR Molto Intensivo
Visibilità : 
Base nubi : 
>= 8 km
>= 3000ft
5 / 8 km
1000 / 3000 ft
1500m / 5 km
500 / 1000 ft
800 / 1500m
200 / 500 ft
< 800m
< 200 ft
Simboli :   Temporali  Nebbia  Neve Forte  Precipitazioni Forti  Vento > 20 kt
SIGMETs :   Varie  Temporali  Ghiacco  Turbolenza  Onda orograficha  Ceneri Vulcaniche






- Altitudine del aeroporto : 376 ft


LHKE - Kecskemét

ULTIMO METAR :
  • 042145Z 17004KT 9999 -SHRA FEW050TCU BKN083 17/15 Q1002 R12/29//94 BECMG CAVOK RMK BLU

METARs OBSOLETI :
  • 042115Z 18006KT 9999 -SHRA FEW050TCU BKN083 17/15 Q1001 R12/29//94 BECMG CAVOK RMK BLU
  • 042045Z 17006KT 140V200 CAVOK 17/15 Q1001 R12/29//94 TEMPO -SHRA RMK BLU
  • 042015Z 18004KT CAVOK 17/15 Q1001 R12/29//94 NOSIG RMK BLU
  • 041945Z 18006KT CAVOK 17/15 Q1001 R12/29//94 NOSIG RMK BLU
  • 041915Z 18006KT 150V210 9999 VCSH FEW050TCU SCT083 BKN200 17/15 Q1002 RESHRA R12/29//94 BECMG CAVOK RMK BLU

TAF TAF LHKE
Valido dal 04 a 21 ore il 05 a 06 ore UTC


042015Z 0421/0506 20008KT CAVOK
PROB30
TEMPO 0421/0424 6000 SHRA RA FEW045TCU BKN070
BECMG 0423/0501 16006KT



MetMap, La meteo Aeronautica in un colpo d'occhio ! - Copyright ORBIFLY Dicembre 2007 - Disclaimer

ORBIFLY MET'MAP TEAM :

Programmazione e sviluppo : Alexandra Zaïnal
Concezione : Baudouin d'Aumeries
Aiuto per la programmazione : Marc-Olivier Méhu
Supporto tecnico e logistico : Manuel Goepfert
Aiuto per la traduzione : Arnaldo La Scala

Contatto : metmap@orbifly.com




FONTI E CREDITI :

   NOAA